Time;durP1;ratioP1;P1;durP2;ratioP2;P2;SDS_P1;SDS_P2;PMS_P1;PMS_P2;Temp;Humidity;BMP_temperature;BMP_pressure;BME280_temperature;BME280_humidity;BME280_pressure;Samples;Min_cycle;Max_cycle;Signal;HPM_P1;HPM_P2
2022/12/11 00:02:07;;;;;;;;;;;4.90;87.00;;;-151.14;100.00;62537.16;5111372;28;19927;-82
2022/12/11 00:04:35;;;;;;;;;;;4.90;87.10;;;-151.14;100.00;62537.16;5073888;28;19920;-82
2022/12/11 00:07:03;;;;;;;;;;;4.90;87.10;;;-151.14;100.00;62537.16;5110431;28;19942;-81
2022/12/11 00:09:31;;;;;;;;;;;4.90;87.10;;;3.64;100.00;62537.16;5093610;28;19926;-82
2022/12/11 00:12:01;;;;;;;;;;;4.90;87.10;;;-151.14;100.00;62537.16;5093786;28;19920;-81
2022/12/11 00:14:29;;;;;;;;;;;4.90;87.10;;;3.65;100.00;62537.16;5076838;28;19920;-82
2022/12/11 00:16:57;;;;;;;;;;;4.90;87.20;;;-151.14;100.00;62537.16;5093560;28;19920;-82
2022/12/11 00:19:26;;;;;;;;;;;4.90;87.10;;;-151.14;100.00;62537.16;5111491;28;19919;-81
2022/12/11 00:21:54;;;;;;;;;;;4.90;87.10;;;-151.14;100.00;62537.16;5085757;28;19920;-82
2022/12/11 00:24:22;;;;;;;;;;;4.90;87.10;;;-151.14;100.00;62537.16;5093314;28;19920;-81
2022/12/11 00:26:50;;;;;;;;;;;4.90;87.10;;;-151.14;100.00;62537.16;5111477;28;19924;-81
2022/12/11 00:29:18;;;;;;;;;;;4.90;87.10;;;-151.14;100.00;62537.16;5076761;28;19930;-82
2022/12/11 00:31:45;;;;;;;;;;;4.90;87.10;;;-151.14;100.00;62537.16;5111621;28;19919;-81
2022/12/11 00:34:13;;;;;;;;;;;4.90;87.10;;;-151.14;100.00;62537.16;5092977;28;19919;-81
2022/12/11 00:36:43;;;;;;;;;;;5.00;87.10;;;-151.14;100.00;62537.16;5093087;28;19927;-81
2022/12/11 00:39:11;;;;;;;;;;;5.00;87.10;;;-151.14;100.00;62537.16;5076554;28;20122;-82
2022/12/11 00:41:39;;;;;;;;;;;5.00;87.10;;;-151.14;100.00;62537.16;5093722;28;19924;-81
2022/12/11 00:44:06;;;;;;;;;;;5.00;87.10;;;-151.14;100.00;62537.16;5110182;28;20119;-82
2022/12/11 00:46:34;;;;;;;;;;;5.00;87.20;;;-151.14;100.00;62537.16;5076094;28;19920;-81
2022/12/11 00:49:03;;;;;;;;;;;5.00;87.30;;;-151.14;100.00;62537.16;5093110;28;19920;-81
2022/12/11 00:51:31;;;;;;;;;;;5.00;87.30;;;-151.14;100.00;62537.16;5093498;28;20226;-82
2022/12/11 00:54:00;;;;;;;;;;;5.00;87.30;;;18.09;100.00;62537.16;5111236;28;19926;-82
2022/12/11 00:56:28;;;;;;;;;;;5.00;87.20;;;-151.14;100.00;62537.16;5076071;28;20216;-82
2022/12/11 00:58:56;;;;;;;;;;;5.00;87.30;;;-151.14;100.00;62537.16;5076258;28;20230;-81
2022/12/11 01:01:24;;;;;;;;;;;5.00;87.10;;;;;;5109312;28;20231;-81
2022/12/11 01:03:53;;;;;;;;;;;5.00;87.20;;;-151.14;100.00;62537.16;5092884;28;19920;-81
2022/12/11 01:06:23;;;;;;;;;;;5.00;87.10;;;3.74;100.00;62537.16;5092758;28;20133;-81
2022/12/11 01:10:22;;;;;;;;;;;5.00;87.10;;;3.75;100.00;62537.16;5093048;28;20132;-81
2022/12/11 01:11:41;;;;;;;;;;;5.00;87.10;;;3.74;100.00;62537.16;5093017;28;19942;-81
2022/12/11 01:14:09;;;;;;;;;;;5.00;87.20;;;-151.14;100.00;62537.16;5110679;28;19920;-81
2022/12/11 01:16:37;;;;;;;;;;;5.00;87.20;;;-151.14;100.00;62537.16;5109802;28;19926;-81
2022/12/11 01:19:05;;;;;;;;;;;5.00;87.10;;;-151.14;100.00;62537.16;5092917;28;20112;-81
2022/12/11 01:21:33;;;;;;;;;;;5.00;87.00;;;-151.14;100.00;62537.16;5110930;28;19920;-81
2022/12/11 01:24:01;;;;;;;;;;;5.00;87.10;;;-151.14;100.00;62537.16;5092615;28;19942;-81
2022/12/11 01:26:29;;;;;;;;;;;5.00;87.00;;;-151.14;100.00;62537.16;5092465;28;19920;-82
2022/12/11 01:28:59;;;;;;;;;;;5.00;87.10;;;-151.14;100.00;62537.16;5093017;28;19920;-81
2022/12/11 01:31:27;;;;;;;;;;;5.00;87.20;;;-151.14;100.00;62537.16;5092855;28;19920;-81
2022/12/11 01:33:54;;;;;;;;;;;5.10;87.30;;;-151.14;100.00;62537.16;5092308;28;19919;-81
2022/12/11 01:36:23;;;;;;;;;;;5.00;87.20;;;-151.14;100.00;62537.16;5110565;28;19926;-81
2022/12/11 01:38:52;;;;;;;;;;;5.10;88.10;;;-151.14;100.00;62537.16;5111011;28;19923;-81
2022/12/11 01:41:20;;;;;;;;;;;5.10;87.40;;;3.78;100.00;62537.16;5110826;28;19920;-81
2022/12/11 01:44:03;;;;;;;;;;;5.00;87.40;;;-151.14;100.00;62537.16;5109354;28;19919;-81
2022/12/11 01:46:32;;;;;;;;;;;5.10;87.50;;;-151.14;100.00;62537.16;5112239;28;19926;-82
2022/12/11 01:49:01;;;;;;;;;;;5.10;87.80;;;-151.14;100.00;62537.16;5096211;28;19942;-81
2022/12/11 01:51:29;;;;;;;;;;;5.10;87.60;;;-151.14;100.00;62537.16;5079184;28;19926;-81
2022/12/11 01:53:58;;;;;;;;;;;5.10;87.80;;;-151.14;100.00;62537.16;5113997;28;20241;-82
2022/12/11 01:56:26;;;;;;;;;;;5.10;87.80;;;-151.14;100.00;62537.16;5095539;28;19920;-81
2022/12/11 01:58:55;;;;;;;;;;;5.10;87.80;;;-151.14;100.00;62537.16;5095702;28;20111;-82
2022/12/11 02:01:28;;;;;;;;;;;5.10;87.70;;;-151.14;100.00;62537.16;5114209;28;20218;-81
2022/12/11 02:03:56;;;;;;;;;;;5.10;87.80;;;-151.14;100.00;62537.16;5078636;28;19926;-81
2022/12/11 02:06:31;;;;;;;;;;;5.10;87.80;;;-151.14;100.00;62537.16;5113705;28;19920;-82
2022/12/11 02:08:59;;;;;;;;;;;5.10;87.80;;;-151.14;100.00;62537.16;5095380;28;19920;-81
2022/12/11 02:11:29;;;;;;;;;;;5.10;87.60;;;-151.14;100.00;62537.16;5078849;28;19927;-82
2022/12/11 02:14:02;;;;;;;;;;;5.10;87.60;;;-151.14;100.00;62537.16;5087999;28;19920;-81
2022/12/11 02:16:35;;;;;;;;;;;5.10;87.80;;;-151.14;100.00;62537.16;5112396;28;19926;-81
2022/12/11 02:19:08;;;;;;;;;;;5.10;87.60;;;-151.14;100.00;62537.16;5095532;28;20138;-82
2022/12/11 02:21:38;;;;;;;;;;;5.10;87.30;;;-151.14;100.00;62537.16;5095206;28;19920;-81
2022/12/11 02:24:13;;;;;;;;;;;5.10;87.30;;;18.10;100.00;62537.16;5095302;28;19927;-81
2022/12/11 02:26:52;;;;;;;;;;;5.20;87.30;;;-151.14;100.00;62537.16;5093189;28;20150;-82
2022/12/11 02:29:23;;;;;;;;;;;5.10;87.50;;;-151.14;100.00;62537.16;5108760;28;19933;-82
2022/12/11 02:31:52;;;;;;;;;;;5.10;87.60;;;-151.14;100.00;62537.16;5113316;28;19919;-81
2022/12/11 02:34:21;;;;;;;;;;;5.20;87.60;;;-151.14;100.00;62537.16;5112277;28;19981;-82
2022/12/11 02:36:51;;;;;;;;;;;5.20;87.80;;;-151.14;100.00;62537.16;5094991;28;20120;-82
2022/12/11 02:39:19;;;;;;;;;;;5.20;87.80;;;3.87;100.00;62537.16;5078436;28;19919;-82
2022/12/11 02:41:49;;;;;;;;;;;5.20;87.70;;;-151.14;100.00;62537.16;5113207;28;19920;-81
2022/12/11 02:44:19;;;;;;;;;;;5.20;87.60;;;-151.14;100.00;62537.16;5094617;28;20118;-81
2022/12/11 02:46:49;;;;;;;;;;;5.20;87.80;;;-151.14;100.00;62537.16;5094940;28;19926;-81
2022/12/11 02:49:17;;;;;;;;;;;5.20;87.60;;;3.92;100.00;62537.16;5074927;28;20115;-81
2022/12/11 02:51:45;;;;;;;;;;;5.20;87.50;;;-151.14;100.00;62537.16;5092871;28;19924;-81
2022/12/11 02:54:14;;;;;;;;;;;5.20;87.80;;;-151.14;100.00;62537.16;5112131;28;19926;-81
2022/12/11 02:56:45;;;;;;;;;;;5.20;87.80;;;19.40;100.00;62537.16;5077897;28;19942;-81
2022/12/11 02:59:15;;;;;;;;;;;5.20;87.80;;;-151.14;100.00;62537.16;5078243;28;20103;-81
2022/12/11 03:01:43;;;;;;;;;;;5.20;87.80;;;-151.14;100.00;62537.16;5094882;28;19920;-81
2022/12/11 03:04:12;;;;;;;;;;;5.20;87.60;;;-151.14;100.00;62537.16;5112714;28;19927;-81
2022/12/11 03:06:43;;;;;;;;;;;5.20;87.70;;;-151.14;100.00;62537.16;5094526;28;19926;-81
2022/12/11 03:09:11;;;;;;;;;;;5.20;87.50;;;-151.14;100.00;62537.16;5112609;28;19920;-81
2022/12/11 03:11:39;;;;;;;;;;;5.20;87.40;;;-151.14;100.00;62537.16;5077987;28;19919;-81
2022/12/11 03:14:07;;;;;;;;;;;5.20;87.50;;;18.08;100.00;62537.16;5094279;28;19919;-81
2022/12/11 03:16:36;;;;;;;;;;;5.20;87.50;;;-151.14;100.00;62537.16;5094664;28;19926;-81
2022/12/11 03:19:11;;;;;;;;;;;5.20;87.60;;;-151.14;100.00;62537.16;5094566;28;19919;-81
2022/12/11 03:21:44;;;;;;;;;;;5.20;87.60;;;3.97;100.00;62537.16;5094447;28;19919;-81
2022/12/11 03:24:15;;;;;;;;;;;5.20;87.30;;;-151.14;100.00;62537.16;5077446;28;19920;-81
2022/12/11 03:26:46;;;;;;;;;;;5.20;87.40;;;-151.14;100.00;62537.16;5094170;28;20127;-81
2022/12/11 03:29:16;;;;;;;;;;;5.20;87.40;;;-151.14;100.00;62537.16;5094553;28;19920;-81
2022/12/11 03:31:45;;;;;;;;;;;5.20;87.40;;;-151.14;100.00;62537.16;5094567;28;19920;-81
2022/12/11 03:34:15;;;;;;;;;;;5.20;87.40;;;-151.14;100.00;62537.16;5077183;28;20260;-81
2022/12/11 03:36:44;;;;;;;;;;;5.20;87.30;;;-151.14;100.00;62537.16;5094095;28;19920;-81
2022/12/11 03:39:13;;;;;;;;;;;5.20;87.40;;;-151.14;100.00;62537.16;5089816;28;19943;-81
2022/12/11 03:41:41;;;;;;;;;;;5.20;87.30;;;-151.14;100.00;62537.16;5056565;28;19927;-81
2022/12/11 03:44:09;;;;;;;;;;;5.20;87.40;;;-151.14;100.00;62537.16;5103665;28;19926;-81
2022/12/11 03:46:38;;;;;;;;;;;5.20;87.50;;;-151.14;100.00;62537.16;5077016;28;19920;-81
2022/12/11 03:49:08;;;;;;;;;;;5.20;87.70;;;-151.14;100.00;62537.16;5112252;28;19920;-81
2022/12/11 03:51:36;;;;;;;;;;;5.20;87.60;;;-151.14;100.00;62537.16;5094431;28;19920;-81
2022/12/11 03:54:06;;;;;;;;;;;5.30;87.70;;;-151.14;100.00;62537.16;5093945;28;19926;-81
2022/12/11 03:56:34;;;;;;;;;;;5.20;87.70;;;-151.14;100.00;62537.16;5094068;28;19919;-81
2022/12/11 03:59:02;;;;;;;;;;;5.30;88.00;;;-151.14;100.00;62537.16;5094091;28;19919;-81
2022/12/11 04:01:30;;;;;;;;;;;5.30;88.00;;;-151.14;100.00;62537.16;5094005;28;19919;-81
2022/12/11 04:03:58;;;;;;;;;;;5.30;87.70;;;-151.14;100.00;62537.16;5093751;28;20230;-81
2022/12/11 04:06:26;;;;;;;;;;;5.20;87.60;;;-151.14;100.00;62537.16;5093590;28;19920;-81
2022/12/11 04:08:53;;;;;;;;;;;5.20;87.80;;;-151.14;100.00;62537.16;5103074;28;20230;-81
2022/12/11 04:11:35;;;;;;;;;;;5.30;87.90;;;-151.14;100.00;62537.16;5093736;28;19919;-81
2022/12/11 04:16:48;;;;;;;;;;;5.30;88.00;;;-151.14;100.00;62537.16;5076617;28;19919;-81
2022/12/11 04:24:55;;;;;;;;;;;5.30;88.00;;;-151.14;100.00;62537.16;5048248;28;19920;-81
2022/12/11 04:30:11;;;;;;;;;;;5.30;88.40;;;-151.14;100.00;62537.16;5093528;28;19920;-81
2022/12/11 04:32:39;;;;;;;;;;;5.30;88.20;;;-151.14;100.00;62537.16;5111543;28;19920;-81
2022/12/11 04:35:08;;;;;;;;;;;5.30;88.00;;;-151.14;100.00;62537.16;5093169;28;20230;-81
2022/12/11 04:37:36;;;;;;;;;;;5.30;88.00;;;-151.14;100.00;62537.16;5093658;28;19920;-81
2022/12/11 04:40:04;;;;;;;;;;;5.30;87.90;;;-151.14;100.00;62537.16;5093161;28;19926;-81
2022/12/11 04:42:34;;;;;;;;;;;5.30;87.80;;;-151.14;100.00;62537.16;5076840;28;19926;-81
2022/12/11 04:45:02;;;;;;;;;;;5.30;87.60;;;-151.14;100.00;62537.16;5092804;28;19926;-81
2022/12/11 04:47:30;;;;;;;;;;;5.30;87.60;;;-151.14;100.00;62537.16;5111482;28;19926;-81
2022/12/11 04:49:57;;;;;;;;;;;5.30;88.00;;;-151.14;100.00;62537.16;5110210;28;19920;-81
2022/12/11 04:52:25;;;;;;;;;;;5.30;88.10;;;-151.14;100.00;62537.16;5093446;28;19920;-81
2022/12/11 04:54:53;;;;;;;;;;;5.30;87.80;;;-151.14;100.00;62537.16;5092732;28;19926;-81
2022/12/11 04:57:21;;;;;;;;;;;5.30;88.00;;;-151.14;100.00;62537.16;5093300;28;20093;-81
2022/12/11 04:59:51;;;;;;;;;;;5.30;87.80;;;-151.14;100.00;62537.16;5111243;28;19920;-81
2022/12/11 05:02:19;;;;;;;;;;;5.30;87.80;;;-151.14;100.00;62537.16;5093329;28;19920;-81
2022/12/11 05:04:47;;;;;;;;;;;5.30;88.00;;;-151.14;100.00;62537.16;5109615;28;19934;-81
2022/12/11 05:07:15;;;;;;;;;;;5.30;87.80;;;-151.14;100.00;62537.16;5076403;28;19920;-81
2022/12/11 05:09:42;;;;;;;;;;;5.30;87.80;;;-151.14;100.00;62537.16;5109911;28;19920;-82
2022/12/11 05:12:10;;;;;;;;;;;5.30;88.00;;;-151.14;100.00;62537.16;5110217;28;19920;-81
2022/12/11 05:14:38;;;;;;;;;;;5.30;88.00;;;-151.14;100.00;62537.16;5111025;28;19927;-81
2022/12/11 05:17:07;;;;;;;;;;;5.30;88.90;;;-151.14;100.00;62537.16;5092973;28;20111;-81
2022/12/11 05:19:35;;;;;;;;;;;5.30;88.10;;;-151.14;100.00;62537.16;5111131;28;19920;-81
2022/12/11 05:22:03;;;;;;;;;;;5.30;87.90;;;-151.14;100.00;62537.16;5096562;28;19919;-81
2022/12/11 05:24:31;;;;;;;;;;;5.30;88.00;;;-151.14;100.00;62537.16;5113399;28;19926;-81
2022/12/11 05:26:59;;;;;;;;;;;5.30;87.70;;;-151.14;100.00;62537.16;5112920;28;19919;-81
2022/12/11 05:29:27;;;;;;;;;;;5.30;87.70;;;-151.14;100.00;62537.16;5113345;28;19919;-81
2022/12/11 05:31:55;;;;;;;;;;;5.30;87.60;;;-151.14;100.00;62537.16;5114517;28;20110;-81
2022/12/11 05:34:24;;;;;;;;;;;5.30;87.70;;;-151.14;100.00;62537.16;5113113;28;19919;-81
2022/12/11 05:36:52;;;;;;;;;;;5.30;87.90;;;-151.14;100.00;62537.16;5129951;28;19920;-81
2022/12/11 05:39:20;;;;;;;;;;;5.30;88.00;;;-151.14;100.00;62537.16;5096289;28;20097;-81
2022/12/11 05:41:48;;;;;;;;;;;5.30;88.10;;;-151.14;100.00;62537.16;5113254;28;19920;-81
2022/12/11 05:44:16;;;;;;;;;;;5.30;88.10;;;-151.14;100.00;62537.16;5095923;28;19919;-81
2022/12/11 05:46:44;;;;;;;;;;;5.30;87.80;;;-151.14;100.00;62537.16;5112391;28;19920;-81
2022/12/11 05:49:11;;;;;;;;;;;5.30;88.00;;;-151.14;100.00;62537.16;5096235;28;20111;-81
2022/12/11 05:51:42;;;;;;;;;;;5.30;88.00;;;-151.14;100.00;62537.16;5112966;28;20207;-81
2022/12/11 05:54:10;;;;;;;;;;;5.30;88.10;;;-151.14;100.00;62537.16;5114028;28;19920;-81
2022/12/11 05:56:38;;;;;;;;;;;5.30;88.10;;;-151.14;100.00;62537.16;5106707;28;20211;-81
2022/12/11 05:59:06;;;;;;;;;;;5.30;88.00;;;-151.14;100.00;62537.16;5129844;28;20203;-81
2022/12/11 06:01:35;;;;;;;;;;;5.30;88.00;;;-151.14;100.00;62537.16;5114230;28;20110;-81
2022/12/11 06:04:03;;;;;;;;;;;5.30;88.00;;;4.06;100.00;62537.16;5112543;28;20126;-81
2022/12/11 06:06:31;;;;;;;;;;;5.30;87.90;;;-151.14;100.00;62537.16;5113441;28;19926;-81
2022/12/11 06:09:01;;;;;;;;;;;5.30;88.00;;;-151.14;100.00;62537.16;5113529;28;19926;-81
2022/12/11 06:11:39;;;;;;;;;;;5.30;87.90;;;-151.14;100.00;62537.16;5112551;28;19926;-81
2022/12/11 06:14:07;;;;;;;;;;;5.30;87.90;;;-151.14;100.00;62537.16;5112697;28;19920;-81
2022/12/11 06:16:34;;;;;;;;;;;5.30;87.90;;;-151.14;100.00;62537.16;5112220;28;19920;-81
2022/12/11 06:19:02;;;;;;;;;;;5.30;87.70;;;-151.14;100.00;62537.16;5113673;28;19919;-81
2022/12/11 06:21:31;;;;;;;;;;;5.30;88.00;;;-151.14;100.00;62537.16;5095367;28;19920;-81
2022/12/11 06:24:01;;;;;;;;;;;5.30;88.20;;;-151.14;100.00;62537.16;5095410;28;19920;-81
2022/12/11 06:26:30;;;;;;;;;;;5.30;88.00;;;-151.14;100.00;62537.16;5112200;28;20093;-81
2022/12/11 06:28:58;;;;;;;;;;;5.30;88.00;;;-151.14;100.00;62537.16;5113564;28;20110;-81
2022/12/11 06:31:26;;;;;;;;;;;5.30;87.80;;;-151.14;100.00;62537.16;5112085;28;19920;-81
2022/12/11 06:33:54;;;;;;;;;;;5.30;87.90;;;-151.14;100.00;62537.16;5129330;28;20127;-81
2022/12/11 06:36:27;;;;;;;;;;;5.40;88.00;;;-151.14;100.00;62537.16;5111938;28;19926;-81
2022/12/11 06:38:55;;;;;;;;;;;5.30;88.00;;;-151.14;100.00;62537.16;5112146;28;19926;-81
2022/12/11 06:41:24;;;;;;;;;;;5.30;87.90;;;-151.14;100.00;62537.16;5095088;28;19920;-81
2022/12/11 06:43:52;;;;;;;;;;;5.30;88.10;;;-151.14;100.00;62537.16;5113119;28;19920;-81
2022/12/11 06:46:20;;;;;;;;;;;5.40;87.80;;;-151.14;100.00;62537.16;5111964;28;19920;-81
2022/12/11 06:48:48;;;;;;;;;;;5.40;87.80;;;-151.14;100.00;62537.16;5111948;28;19926;-81
2022/12/11 06:51:17;;;;;;;;;;;5.40;87.80;;;-151.14;100.00;62537.16;5111930;28;19934;-81
2022/12/11 06:53:45;;;;;;;;;;;5.40;88.00;;;4.08;100.00;81692.31;5111771;28;19920;-81
2022/12/11 06:56:14;;;;;;;;;;;5.40;88.00;;;-151.14;100.00;62537.16;5112765;28;19926;-81
2022/12/11 06:58:43;;;;;;;;;;;5.40;87.70;;;-151.14;100.00;62537.16;5129065;28;19934;-81
2022/12/11 07:01:16;;;;;;;;;;;5.40;87.90;;;-151.14;100.00;62537.16;5094969;28;19985;-81
2022/12/11 07:03:44;;;;;;;;;;;5.40;87.70;;;-151.14;100.00;62537.16;5094668;28;19919;-81
2022/12/11 07:06:12;;;;;;;;;;;5.40;88.00;;;-151.14;100.00;62537.16;5111442;28;19926;-81
2022/12/11 07:08:40;;;;;;;;;;;5.40;88.10;;;-151.14;100.00;62537.16;5111677;28;19920;-81
2022/12/11 07:11:09;;;;;;;;;;;5.40;87.80;;;-151.14;100.00;62537.16;5111805;28;19920;-81
2022/12/11 07:13:37;;;;;;;;;;;5.40;88.00;;;-151.14;100.00;62537.16;5111438;28;19920;-81
2022/12/11 07:16:09;;;;;;;;;;;5.40;87.90;;;-151.14;100.00;62537.16;5094475;28;19926;-81
2022/12/11 07:18:38;;;;;;;;;;;5.40;88.00;;;-151.14;100.00;62537.16;5111557;28;19926;-81
2022/12/11 07:21:06;;;;;;;;;;;5.40;88.00;;;-151.14;100.00;62537.16;5111429;28;19926;-81
2022/12/11 07:23:34;;;;;;;;;;;5.40;87.80;;;-151.14;100.00;62537.16;5128565;28;19942;-81
2022/12/11 07:26:04;;;;;;;;;;;5.40;87.90;;;-151.14;100.00;62537.16;5112404;28;19926;-81
2022/12/11 07:28:32;;;;;;;;;;;5.40;87.90;;;-151.14;100.00;62537.16;5128713;28;20131;-81
2022/12/11 07:31:00;;;;;;;;;;;5.40;87.90;;;-151.14;100.00;62537.16;5112536;28;19920;-81
2022/12/11 07:33:29;;;;;;;;;;;5.40;87.70;;;-151.14;100.00;62537.16;5111292;28;20128;-81
2022/12/11 07:36:01;;;;;;;;;;;5.40;87.80;;;-151.14;100.00;62537.16;5110945;28;19926;-81
2022/12/11 07:38:29;;;;;;;;;;;5.40;87.80;;;-151.14;100.00;62537.16;5111212;28;19927;-81
2022/12/11 07:41:00;;;;;;;;;;;5.40;87.90;;;-151.14;100.00;62537.16;5094325;28;19943;-81
2022/12/11 07:43:28;;;;;;;;;;;5.40;88.00;;;-151.14;100.00;62537.16;5111194;28;19927;-81
2022/12/11 07:45:55;;;;;;;;;;;5.40;87.80;;;-151.14;100.00;62537.16;5112032;28;19927;-81
2022/12/11 07:48:23;;;;;;;;;;;5.40;87.60;;;-151.14;100.00;62537.16;5111084;28;20208;-81
2022/12/11 07:50:53;;;;;;;;;;;5.40;87.90;;;-151.14;100.00;62537.16;5112189;28;19926;-81
2022/12/11 07:53:20;;;;;;;;;;;5.40;88.60;;;-151.14;100.00;62537.16;5112257;28;20234;-81
2022/12/11 07:55:48;;;;;;;;;;;5.50;88.10;;;-151.14;100.00;62537.16;5110877;28;19920;-81
2022/12/11 07:58:17;;;;;;;;;;;5.50;88.10;;;-151.14;100.00;62537.16;5093960;28;19926;-81
2022/12/11 08:00:46;;;;;;;;;;;5.50;88.10;;;-151.14;100.00;62537.16;5110921;28;20211;-81
2022/12/11 08:03:14;;;;;;;;;;;5.50;88.10;;;-151.14;100.00;62537.16;5094061;28;19926;-81
2022/12/11 08:05:47;;;;;;;;;;;5.50;88.10;;;-151.14;100.00;62537.16;5111722;28;19920;-81
2022/12/11 08:08:17;;;;;;;;;;;5.50;87.80;;;-151.14;100.00;62537.16;5094211;28;19920;-81
2022/12/11 08:10:45;;;;;;;;;;;5.50;87.90;;;-151.14;100.00;62537.16;5111866;28;19926;-81
2022/12/11 08:13:13;;;;;;;;;;;5.50;87.80;;;-151.14;100.00;62537.16;5110480;28;19919;-81
2022/12/11 08:15:41;;;;;;;;;;;5.50;87.90;;;-151.14;100.00;62537.16;5110271;28;20119;-81
2022/12/11 08:18:08;;;;;;;;;;;5.50;87.80;;;-151.14;100.00;62537.16;5107357;28;19920;-81
2022/12/11 08:20:38;;;;;;;;;;;5.50;87.70;;;-151.14;100.00;62537.16;5073675;28;19926;-81
2022/12/11 08:23:06;;;;;;;;;;;5.50;88.00;;;-151.14;100.00;62537.16;5076545;28;19920;-81
2022/12/11 08:25:35;;;;;;;;;;;5.50;87.80;;;-151.14;100.00;62537.16;5089813;28;19926;-81
2022/12/11 08:28:03;;;;;;;;;;;5.50;88.00;;;4.29;100.00;62537.16;5096731;28;19920;-81
2022/12/11 08:30:32;;;;;;;;;;;5.50;88.00;;;-151.14;100.00;62537.16;5110574;28;19926;-81
2022/12/11 08:33:00;;;;;;;;;;;5.50;88.00;;;-151.14;100.00;62537.16;5078341;28;19926;-81
2022/12/11 08:35:28;;;;;;;;;;;5.60;87.90;;;-151.14;100.00;62537.16;5111115;28;19920;-81
2022/12/11 08:37:56;;;;;;;;;;;5.60;88.00;;;-151.14;100.00;62537.16;5110690;28;19926;-81
2022/12/11 08:40:24;;;;;;;;;;;5.60;87.70;;;-151.14;100.00;62537.16;5110743;28;19920;-82
2022/12/11 08:42:53;;;;;;;;;;;5.60;87.80;;;-151.14;100.00;62537.16;5076681;28;19920;-82
2022/12/11 08:45:21;;;;;;;;;;;5.60;87.90;;;-151.14;100.00;62537.16;5093055;28;19927;-81
2022/12/11 08:47:49;;;;;;;;;;;5.60;88.00;;;-151.14;100.00;62537.16;5076707;28;19920;-82
2022/12/11 08:50:17;;;;;;;;;;;5.60;87.80;;;-151.14;100.00;62537.16;5076641;28;19919;-81
2022/12/11 08:52:45;;;;;;;;;;;5.60;87.90;;;18.10;100.00;62537.16;5076530;28;19949;-81
2022/12/11 08:55:13;;;;;;;;;;;5.60;87.60;;;-151.14;100.00;62537.16;5113628;28;19927;-81
2022/12/11 08:57:41;;;;;;;;;;;5.60;87.80;;;-151.14;100.00;62537.16;5115074;28;19920;-81
2022/12/11 09:00:12;;;;;;;;;;;5.60;87.60;;;4.41;100.00;62537.16;5096929;28;20261;-81
2022/12/11 09:02:40;;;;;;;;;;;5.70;87.80;;;-151.14;100.00;62537.16;5096825;28;19919;-81
2022/12/11 09:05:08;;;;;;;;;;;5.70;87.80;;;-151.14;100.00;62537.16;5096222;28;19926;-81
2022/12/11 09:07:37;;;;;;;;;;;5.70;88.10;;;-151.14;100.00;62537.16;5096884;28;20233;-81
2022/12/11 09:10:06;;;;;;;;;;;5.70;88.10;;;-151.14;100.00;62537.16;5079413;28;20244;-81
2022/12/11 09:12:34;;;;;;;;;;;5.70;88.20;;;-151.14;100.00;62537.16;5097036;28;20135;-81
2022/12/11 09:15:02;;;;;;;;;;;5.80;88.10;;;-151.14;100.00;62537.16;5096333;28;19969;-81
2022/12/11 09:17:32;;;;;;;;;;;5.80;88.10;;;-151.14;100.00;62537.16;5096648;28;19920;-81
2022/12/11 09:20:00;;;;;;;;;;;5.80;87.90;;;-151.14;100.00;62537.16;5079984;28;19920;-82
2022/12/11 09:22:28;;;;;;;;;;;5.80;87.80;;;-151.14;100.00;62537.16;5079571;28;19919;-81
2022/12/11 09:24:56;;;;;;;;;;;5.80;87.90;;;-151.14;100.00;62537.16;5095971;28;20234;-82
2022/12/11 09:27:25;;;;;;;;;;;5.90;87.80;;;-151.14;100.00;62537.16;5079752;28;19946;-82
2022/12/11 09:29:54;;;;;;;;;;;5.90;88.30;;;-151.14;100.00;62537.16;5096376;28;19920;-82
2022/12/11 09:32:22;;;;;;;;;;;6.00;88.00;;;-151.14;100.00;62537.16;5114620;28;19920;-82
2022/12/11 09:34:52;;;;;;;;;;;6.00;87.80;;;-151.14;100.00;62537.16;5095669;28;19920;-82
2022/12/11 09:37:19;;;;;;;;;;;6.10;87.90;;;-151.14;100.00;62537.16;5079375;28;20212;-82
2022/12/11 09:39:48;;;;;;;;;;;6.10;87.60;;;-151.14;100.00;62537.16;5096326;28;19920;-82
2022/12/11 09:42:18;;;;;;;;;;;6.10;87.70;;;-151.14;100.00;62537.16;5079339;28;19926;-82
2022/12/11 09:44:47;;;;;;;;;;;6.10;87.50;;;-151.14;100.00;62537.16;5095616;28;19926;-82
2022/12/11 09:47:21;;;;;;;;;;;6.20;87.50;;;-151.14;100.00;62537.16;5096128;28;19926;-82
2022/12/11 09:49:53;;;;;;;;;;;6.20;87.30;;;-151.14;100.00;62537.16;5096611;28;19920;-81
2022/12/11 09:52:23;;;;;;;;;;;6.20;87.40;;;-151.14;100.00;62537.16;5096218;28;19926;-82
2022/12/11 09:54:52;;;;;;;;;;;6.20;87.20;;;-151.14;100.00;62537.16;5095425;28;19926;-82
2022/12/11 09:57:36;;;;;;;;;;;6.20;87.30;;;5.02;100.00;62537.16;5095931;28;19919;-81
2022/12/11 10:00:22;;;;;;;;;;;6.30;87.10;;;-151.14;100.00;62537.16;5079243;28;19919;-82
2022/12/11 10:03:22;;;;;;;;;;;6.30;86.80;;;-151.14;100.00;62537.16;5095369;28;19928;-82
2022/12/11 10:05:53;;;;;;;;;;;6.30;86.90;;;-151.14;100.00;62537.16;5066318;28;20088;-82
2022/12/11 10:08:25;;;;;;;;;;;6.30;86.70;;;-151.14;100.00;62537.16;5079083;28;20233;-82
2022/12/11 10:10:57;;;;;;;;;;;6.30;86.50;;;-151.14;100.00;62537.16;5113781;28;19920;-82
2022/12/11 10:13:29;;;;;;;;;;;6.30;86.30;;;-151.14;100.00;62537.16;5095771;28;19920;-82
2022/12/11 10:15:58;;;;;;;;;;;6.40;86.30;;;-151.14;100.00;62537.16;5095225;28;19926;-82
2022/12/11 10:18:27;;;;;;;;;;;6.30;86.20;;;-151.14;100.00;62537.16;5113823;28;20135;-81
2022/12/11 10:20:56;;;;;;;;;;;6.30;86.10;;;5.02;100.00;62537.16;5078390;28;19920;-82
2022/12/11 10:23:25;;;;;;;;;;;6.30;86.30;;;-151.14;100.00;62537.16;5113683;28;19920;-82
2022/12/11 10:25:56;;;;;;;;;;;6.30;86.30;;;-151.14;100.00;62537.16;5095331;28;19919;-82
2022/12/11 10:28:27;;;;;;;;;;;6.20;86.10;;;-151.14;100.00;62537.16;5095029;28;19920;-81
2022/12/11 10:30:57;;;;;;;;;;;6.20;86.20;;;4.91;100.00;82154.38;5113625;28;19920;-81
2022/12/11 10:33:28;;;;;;;;;;;6.20;86.30;;;4.87;100.00;62537.16;5095218;28;19928;-82
2022/12/11 10:35:58;;;;;;;;;;;6.20;86.40;;;-151.14;100.00;62537.16;5095127;28;19920;-81
2022/12/11 10:38:28;;;;;;;;;;;6.10;86.40;;;4.83;100.00;62537.16;5078525;28;19928;-81
2022/12/11 10:40:58;;;;;;;;;;;6.10;86.40;;;4.81;100.00;62537.16;5078418;28;19920;-81
2022/12/11 10:43:34;;;;;;;;;;;6.10;86.50;;;-151.14;100.00;62537.16;5113334;28;20337;-82
2022/12/11 10:46:01;;;;;;;;;;;6.10;86.60;;;-151.14;100.00;62537.16;5094938;28;19926;-81
2022/12/11 10:48:30;;;;;;;;;;;6.10;86.70;;;-151.14;100.00;62537.16;5095175;28;19919;-82
2022/12/11 10:51:00;;;;;;;;;;;6.00;86.70;;;4.75;100.00;62537.16;5095062;28;19920;-81
2022/12/11 10:53:29;;;;;;;;;;;6.00;86.70;;;-151.14;100.00;62537.16;5094805;28;19926;-82
2022/12/11 10:55:57;;;;;;;;;;;6.00;86.70;;;-151.14;100.00;62537.16;5112912;28;19920;-82
2022/12/11 10:58:26;;;;;;;;;;;6.00;86.90;;;187.61;100.00;62537.16;5095219;28;19973;-82
2022/12/11 11:01:05;;;;;;;;;;;6.00;87.00;;;-151.14;100.00;62537.16;5077837;28;19920;-81
2022/12/11 11:03:33;;;;;;;;;;;5.90;87.00;;;-151.14;100.00;62537.16;5094578;28;19928;-82
2022/12/11 11:06:07;;;;;;;;;;;5.90;87.00;;;-151.14;100.00;62537.16;5112476;28;19955;-82
2022/12/11 11:08:40;;;;;;;;;;;5.90;87.00;;;-151.14;100.00;62537.16;5094662;28;19926;-81
2022/12/11 11:11:20;;;;;;;;;;;5.90;87.20;;;-151.14;100.00;62537.16;5112841;28;19926;-81
2022/12/11 11:13:48;;;;;;;;;;;5.90;87.10;;;-151.14;100.00;62537.16;5077944;28;19926;-82
2022/12/11 11:16:16;;;;;;;;;;;5.90;87.30;;;-151.14;100.00;62537.16;5112400;28;19919;-82
2022/12/11 11:18:51;;;;;;;;;;;5.90;87.20;;;-151.14;100.00;62537.16;5078047;28;19928;-82
2022/12/11 11:21:20;;;;;;;;;;;5.90;87.30;;;-151.14;100.00;62537.16;5094585;28;19920;-81
2022/12/11 11:23:48;;;;;;;;;;;5.80;87.20;;;-151.14;100.00;62537.16;5094196;28;19942;-81
2022/12/11 11:26:16;;;;;;;;;;;5.80;87.20;;;-151.14;100.00;62537.16;5077355;28;20081;-81